sensor_id;sensor_type;location;lat;lon;timestamp;P1;durP1;ratioP1;P2;durP2;ratioP2
11970;SDS011;6045;42.682;23.294;2024-02-26T00:00:10;16.40;;;9.67;;
11970;SDS011;6045;42.682;23.294;2024-02-26T00:02:38;14.20;;;9.63;;
11970;SDS011;6045;42.682;23.294;2024-02-26T00:05:07;17.13;;;8.97;;
11970;SDS011;6045;42.682;23.294;2024-02-26T00:07:34;15.93;;;9.90;;
11970;SDS011;6045;42.682;23.294;2024-02-26T00:10:01;14.70;;;10.10;;
11970;SDS011;6045;42.682;23.294;2024-02-26T00:12:29;15.43;;;10.43;;
11970;SDS011;6045;42.682;23.294;2024-02-26T00:14:56;14.50;;;9.47;;
11970;SDS011;6045;42.682;23.294;2024-02-26T00:17:23;13.00;;;9.07;;
11970;SDS011;6045;42.682;23.294;2024-02-26T00:19:50;16.73;;;10.07;;
11970;SDS011;6045;42.682;23.294;2024-02-26T00:22:19;17.70;;;10.60;;
11970;SDS011;6045;42.682;23.294;2024-02-26T00:24:47;18.07;;;10.50;;
11970;SDS011;6045;42.682;23.294;2024-02-26T00:27:14;20.57;;;11.27;;
11970;SDS011;6045;42.682;23.294;2024-02-26T00:29:41;17.47;;;11.73;;
11970;SDS011;6045;42.682;23.294;2024-02-26T00:32:08;19.13;;;10.73;;
11970;SDS011;6045;42.682;23.294;2024-02-26T00:34:35;15.53;;;10.40;;
11970;SDS011;6045;42.682;23.294;2024-02-26T00:37:02;16.17;;;10.50;;
11970;SDS011;6045;42.682;23.294;2024-02-26T00:39:31;19.37;;;11.87;;
11970;SDS011;6045;42.682;23.294;2024-02-26T00:41:58;17.90;;;10.90;;
11970;SDS011;6045;42.682;23.294;2024-02-26T00:44:25;16.10;;;10.47;;
11970;SDS011;6045;42.682;23.294;2024-02-26T00:46:52;14.23;;;9.73;;
11970;SDS011;6045;42.682;23.294;2024-02-26T00:49:18;17.47;;;10.40;;
11970;SDS011;6045;42.682;23.294;2024-02-26T00:51:46;13.80;;;9.73;;
11970;SDS011;6045;42.682;23.294;2024-02-26T00:54:13;15.13;;;9.90;;
11970;SDS011;6045;42.682;23.294;2024-02-26T00:56:41;15.10;;;10.13;;
11970;SDS011;6045;42.682;23.294;2024-02-26T00:59:08;18.97;;;10.93;;
11970;SDS011;6045;42.682;23.294;2024-02-26T01:01:35;15.67;;;9.77;;
11970;SDS011;6045;42.682;23.294;2024-02-26T01:04:02;16.47;;;10.70;;
11970;SDS011;6045;42.682;23.294;2024-02-26T01:06:29;16.70;;;10.33;;
11970;SDS011;6045;42.682;23.294;2024-02-26T01:08:56;14.57;;;10.07;;
11970;SDS011;6045;42.682;23.294;2024-02-26T01:11:25;16.57;;;9.70;;
11970;SDS011;6045;42.682;23.294;2024-02-26T01:13:54;15.03;;;9.93;;
11970;SDS011;6045;42.682;23.294;2024-02-26T01:16:21;14.27;;;9.90;;
11970;SDS011;6045;42.682;23.294;2024-02-26T01:18:49;13.03;;;9.63;;
11970;SDS011;6045;42.682;23.294;2024-02-26T01:21:16;18.53;;;10.57;;
11970;SDS011;6045;42.682;23.294;2024-02-26T01:23:42;14.27;;;10.57;;
11970;SDS011;6045;42.682;23.294;2024-02-26T01:26:09;17.20;;;9.63;;
11970;SDS011;6045;42.682;23.294;2024-02-26T01:28:37;15.27;;;9.40;;
11970;SDS011;6045;42.682;23.294;2024-02-26T01:31:05;15.40;;;9.87;;
11970;SDS011;6045;42.682;23.294;2024-02-26T01:33:33;16.23;;;10.00;;
11970;SDS011;6045;42.682;23.294;2024-02-26T01:36:03;15.47;;;9.47;;
11970;SDS011;6045;42.682;23.294;2024-02-26T01:38:31;14.50;;;9.60;;
11970;SDS011;6045;42.682;23.294;2024-02-26T01:40:58;16.53;;;9.73;;
11970;SDS011;6045;42.682;23.294;2024-02-26T01:43:24;16.27;;;9.80;;
11970;SDS011;6045;42.682;23.294;2024-02-26T01:45:51;15.77;;;9.67;;
11970;SDS011;6045;42.682;23.294;2024-02-26T01:48:20;15.40;;;9.83;;
11970;SDS011;6045;42.682;23.294;2024-02-26T01:50:47;13.50;;;8.70;;
11970;SDS011;6045;42.682;23.294;2024-02-26T01:53:14;15.87;;;9.40;;
11970;SDS011;6045;42.682;23.294;2024-02-26T01:55:46;14.43;;;9.97;;
11970;SDS011;6045;42.682;23.294;2024-02-26T01:58:13;16.17;;;10.60;;
11970;SDS011;6045;42.682;23.294;2024-02-26T02:00:40;13.10;;;9.30;;
11970;SDS011;6045;42.682;23.294;2024-02-26T02:03:08;16.73;;;9.87;;
11970;SDS011;6045;42.682;23.294;2024-02-26T02:05:36;14.93;;;9.87;;
11970;SDS011;6045;42.682;23.294;2024-02-26T02:08:07;15.73;;;10.37;;
11970;SDS011;6045;42.682;23.294;2024-02-26T02:10:34;19.20;;;10.87;;
11970;SDS011;6045;42.682;23.294;2024-02-26T02:13:01;15.57;;;10.30;;
11970;SDS011;6045;42.682;23.294;2024-02-26T02:15:28;13.30;;;10.03;;
11970;SDS011;6045;42.682;23.294;2024-02-26T02:17:55;17.13;;;10.57;;
11970;SDS011;6045;42.682;23.294;2024-02-26T02:20:26;19.97;;;12.30;;
11970;SDS011;6045;42.682;23.294;2024-02-26T02:22:53;20.33;;;13.07;;
11970;SDS011;6045;42.682;23.294;2024-02-26T02:25:20;22.87;;;13.07;;
11970;SDS011;6045;42.682;23.294;2024-02-26T02:27:47;17.17;;;11.93;;
11970;SDS011;6045;42.682;23.294;2024-02-26T02:30:14;19.80;;;12.43;;
11970;SDS011;6045;42.682;23.294;2024-02-26T02:32:41;18.47;;;11.77;;
11970;SDS011;6045;42.682;23.294;2024-02-26T02:35:09;19.53;;;12.40;;
11970;SDS011;6045;42.682;23.294;2024-02-26T02:37:37;25.70;;;13.20;;
11970;SDS011;6045;42.682;23.294;2024-02-26T02:40:04;21.23;;;13.90;;
11970;SDS011;6045;42.682;23.294;2024-02-26T02:42:32;21.70;;;13.70;;
11970;SDS011;6045;42.682;23.294;2024-02-26T02:44:59;19.87;;;12.00;;
11970;SDS011;6045;42.682;23.294;2024-02-26T02:47:26;23.40;;;13.07;;
11970;SDS011;6045;42.682;23.294;2024-02-26T02:49:53;23.40;;;13.33;;
11970;SDS011;6045;42.682;23.294;2024-02-26T02:52:20;20.33;;;12.83;;
11970;SDS011;6045;42.682;23.294;2024-02-26T02:54:48;19.00;;;12.80;;
11970;SDS011;6045;42.682;23.294;2024-02-26T02:57:15;17.43;;;13.17;;
11970;SDS011;6045;42.682;23.294;2024-02-26T02:59:43;21.40;;;12.33;;
11970;SDS011;6045;42.682;23.294;2024-02-26T03:02:10;20.43;;;12.77;;
11970;SDS011;6045;42.682;23.294;2024-02-26T03:04:36;21.53;;;12.57;;
11970;SDS011;6045;42.682;23.294;2024-02-26T03:07:04;23.40;;;13.40;;
11970;SDS011;6045;42.682;23.294;2024-02-26T03:09:31;21.50;;;12.23;;
11970;SDS011;6045;42.682;23.294;2024-02-26T03:11:59;19.87;;;12.87;;
11970;SDS011;6045;42.682;23.294;2024-02-26T03:14:26;20.30;;;12.77;;
11970;SDS011;6045;42.682;23.294;2024-02-26T03:16:53;22.20;;;13.53;;
11970;SDS011;6045;42.682;23.294;2024-02-26T03:19:20;20.63;;;13.40;;
11970;SDS011;6045;42.682;23.294;2024-02-26T03:21:47;23.67;;;13.97;;
11970;SDS011;6045;42.682;23.294;2024-02-26T03:24:14;22.33;;;13.67;;
11970;SDS011;6045;42.682;23.294;2024-02-26T03:26:41;24.70;;;14.97;;
11970;SDS011;6045;42.682;23.294;2024-02-26T03:29:09;18.57;;;12.90;;
11970;SDS011;6045;42.682;23.294;2024-02-26T03:31:36;19.27;;;12.27;;
11970;SDS011;6045;42.682;23.294;2024-02-26T03:34:03;20.20;;;13.17;;
11970;SDS011;6045;42.682;23.294;2024-02-26T03:36:30;21.50;;;13.83;;
11970;SDS011;6045;42.682;23.294;2024-02-26T03:39:00;24.37;;;14.83;;
11970;SDS011;6045;42.682;23.294;2024-02-26T03:41:40;23.60;;;13.80;;
11970;SDS011;6045;42.682;23.294;2024-02-26T03:58:53;22.47;;;13.97;;
11970;SDS011;6045;42.682;23.294;2024-02-26T04:01:20;21.83;;;13.57;;
11970;SDS011;6045;42.682;23.294;2024-02-26T04:07:32;24.13;;;13.93;;
11970;SDS011;6045;42.682;23.294;2024-02-26T04:13:30;24.37;;;14.37;;
11970;SDS011;6045;42.682;23.294;2024-02-26T04:15:58;21.97;;;14.30;;
11970;SDS011;6045;42.682;23.294;2024-02-26T04:18:26;20.70;;;14.27;;
11970;SDS011;6045;42.682;23.294;2024-02-26T04:21:00;23.00;;;14.90;;
11970;SDS011;6045;42.682;23.294;2024-02-26T04:23:48;24.97;;;15.10;;
11970;SDS011;6045;42.682;23.294;2024-02-26T04:26:32;27.50;;;15.33;;
11970;SDS011;6045;42.682;23.294;2024-02-26T04:36:30;22.60;;;14.60;;
11970;SDS011;6045;42.682;23.294;2024-02-26T04:48:18;28.50;;;15.57;;
11970;SDS011;6045;42.682;23.294;2024-02-26T04:52:36;23.53;;;15.67;;
11970;SDS011;6045;42.682;23.294;2024-02-26T04:55:03;23.90;;;15.30;;
11970;SDS011;6045;42.682;23.294;2024-02-26T04:57:33;22.67;;;15.00;;
11970;SDS011;6045;42.682;23.294;2024-02-26T05:00:00;25.07;;;15.13;;
11970;SDS011;6045;42.682;23.294;2024-02-26T05:02:30;25.57;;;15.53;;
11970;SDS011;6045;42.682;23.294;2024-02-26T05:11:26;23.33;;;15.73;;
11970;SDS011;6045;42.682;23.294;2024-02-26T05:20:44;26.77;;;16.50;;
11970;SDS011;6045;42.682;23.294;2024-02-26T05:26:48;28.70;;;15.60;;
11970;SDS011;6045;42.682;23.294;2024-02-26T05:29:15;23.67;;;15.57;;
11970;SDS011;6045;42.682;23.294;2024-02-26T05:31:42;26.43;;;15.73;;
11970;SDS011;6045;42.682;23.294;2024-02-26T05:34:09;25.63;;;16.57;;
11970;SDS011;6045;42.682;23.294;2024-02-26T05:42:52;30.93;;;18.57;;
11970;SDS011;6045;42.682;23.294;2024-02-26T05:45:19;28.30;;;18.73;;
11970;SDS011;6045;42.682;23.294;2024-02-26T05:54:32;26.37;;;16.40;;
11970;SDS011;6045;42.682;23.294;2024-02-26T05:56:59;26.70;;;17.27;;
11970;SDS011;6045;42.682;23.294;2024-02-26T05:59:27;27.80;;;16.30;;
11970;SDS011;6045;42.682;23.294;2024-02-26T06:01:54;27.67;;;17.60;;
11970;SDS011;6045;42.682;23.294;2024-02-26T06:04:21;27.43;;;16.63;;
11970;SDS011;6045;42.682;23.294;2024-02-26T06:06:48;26.93;;;16.47;;
11970;SDS011;6045;42.682;23.294;2024-02-26T06:09:15;27.97;;;15.93;;
11970;SDS011;6045;42.682;23.294;2024-02-26T06:11:42;23.13;;;15.33;;
11970;SDS011;6045;42.682;23.294;2024-02-26T06:14:12;24.17;;;16.17;;
11970;SDS011;6045;42.682;23.294;2024-02-26T06:16:50;26.10;;;16.37;;
11970;SDS011;6045;42.682;23.294;2024-02-26T06:19:33;24.90;;;16.00;;
11970;SDS011;6045;42.682;23.294;2024-02-26T06:22:00;28.90;;;16.67;;
11970;SDS011;6045;42.682;23.294;2024-02-26T06:24:27;24.63;;;16.30;;
11970;SDS011;6045;42.682;23.294;2024-02-26T06:26:57;26.30;;;16.87;;
11970;SDS011;6045;42.682;23.294;2024-02-26T06:49:33;27.97;;;16.33;;
11970;SDS011;6045;42.682;23.294;2024-02-26T06:58:39;23.10;;;16.50;;
11970;SDS011;6045;42.682;23.294;2024-02-26T07:18:34;15.30;;;10.10;;
11970;SDS011;6045;42.682;23.294;2024-02-26T07:24:31;13.97;;;10.07;;
11970;SDS011;6045;42.682;23.294;2024-02-26T07:47:23;21.33;;;12.93;;
11970;SDS011;6045;42.682;23.294;2024-02-26T07:49:50;19.40;;;13.50;;
11970;SDS011;6045;42.682;23.294;2024-02-26T07:52:33;20.83;;;13.73;;
11970;SDS011;6045;42.682;23.294;2024-02-26T07:55:09;24.63;;;15.27;;
11970;SDS011;6045;42.682;23.294;2024-02-26T07:57:48;27.57;;;14.93;;
11970;SDS011;6045;42.682;23.294;2024-02-26T09:01:58;32.60;;;19.27;;
11970;SDS011;6045;42.682;23.294;2024-02-26T09:04:25;32.57;;;20.67;;
11970;SDS011;6045;42.682;23.294;2024-02-26T09:06:52;35.43;;;19.70;;
11970;SDS011;6045;42.682;23.294;2024-02-26T09:09:20;27.37;;;18.70;;
11970;SDS011;6045;42.682;23.294;2024-02-26T09:11:52;9.90;;;7.47;;
11970;SDS011;6045;42.682;23.294;2024-02-26T09:14:50;8.70;;;5.70;;
11970;SDS011;6045;42.682;23.294;2024-02-26T09:17:18;8.97;;;6.43;;
11970;SDS011;6045;42.682;23.294;2024-02-26T09:19:48;10.77;;;6.30;;
11970;SDS011;6045;42.682;23.294;2024-02-26T09:25:33;14.07;;;8.13;;
11970;SDS011;6045;42.682;23.294;2024-02-26T09:28:00;9.40;;;7.27;;
11970;SDS011;6045;42.682;23.294;2024-02-26T09:30:28;9.73;;;7.07;;
11970;SDS011;6045;42.682;23.294;2024-02-26T09:36:34;11.77;;;7.00;;
11970;SDS011;6045;42.682;23.294;2024-02-26T10:29:59;6.03;;;4.43;;
11970;SDS011;6045;42.682;23.294;2024-02-26T10:33:04;4.67;;;3.70;;
11970;SDS011;6045;42.682;23.294;2024-02-26T10:36:17;7.37;;;4.63;;
11970;SDS011;6045;42.682;23.294;2024-02-26T10:39:07;6.83;;;4.10;;
11970;SDS011;6045;42.682;23.294;2024-02-26T11:01:46;4.70;;;3.80;;
11970;SDS011;6045;42.682;23.294;2024-02-26T11:04:14;6.53;;;4.50;;
11970;SDS011;6045;42.682;23.294;2024-02-26T11:06:42;6.17;;;4.10;;
11970;SDS011;6045;42.682;23.294;2024-02-26T11:09:12;6.10;;;4.03;;
11970;SDS011;6045;42.682;23.294;2024-02-26T11:11:41;7.60;;;4.67;;
11970;SDS011;6045;42.682;23.294;2024-02-26T11:14:23;7.07;;;4.50;;
11970;SDS011;6045;42.682;23.294;2024-02-26T11:17:01;5.93;;;4.30;;
11970;SDS011;6045;42.682;23.294;2024-02-26T11:19:35;6.07;;;4.10;;
11970;SDS011;6045;42.682;23.294;2024-02-26T11:22:07;5.87;;;4.20;;
11970;SDS011;6045;42.682;23.294;2024-02-26T11:24:36;5.90;;;4.57;;
11970;SDS011;6045;42.682;23.294;2024-02-26T11:27:06;6.57;;;4.63;;
11970;SDS011;6045;42.682;23.294;2024-02-26T11:29:39;5.03;;;4.20;;
11970;SDS011;6045;42.682;23.294;2024-02-26T11:32:21;4.70;;;4.00;;
11970;SDS011;6045;42.682;23.294;2024-02-26T11:34:50;4.70;;;4.03;;
11970;SDS011;6045;42.682;23.294;2024-02-26T11:37:21;6.10;;;3.93;;
11970;SDS011;6045;42.682;23.294;2024-02-26T11:39:51;5.37;;;3.73;;
11970;SDS011;6045;42.682;23.294;2024-02-26T11:42:22;6.07;;;4.27;;
11970;SDS011;6045;42.682;23.294;2024-02-26T11:45:04;6.37;;;4.70;;
11970;SDS011;6045;42.682;23.294;2024-02-26T11:48:19;6.20;;;4.20;;
11970;SDS011;6045;42.682;23.294;2024-02-26T11:50:47;6.83;;;4.50;;
11970;SDS011;6045;42.682;23.294;2024-02-26T11:53:20;6.87;;;4.37;;
11970;SDS011;6045;42.682;23.294;2024-02-26T11:58:58;3.73;;;3.30;;
11970;SDS011;6045;42.682;23.294;2024-02-26T12:01:38;7.43;;;4.00;;
11970;SDS011;6045;42.682;23.294;2024-02-26T12:07:39;4.50;;;3.43;;
11970;SDS011;6045;42.682;23.294;2024-02-26T12:10:23;5.57;;;3.50;;
11970;SDS011;6045;42.682;23.294;2024-02-26T12:12:54;5.93;;;3.73;;
11970;SDS011;6045;42.682;23.294;2024-02-26T12:15:45;6.83;;;3.73;;
11970;SDS011;6045;42.682;23.294;2024-02-26T12:18:24;4.47;;;3.73;;
11970;SDS011;6045;42.682;23.294;2024-02-26T12:20:57;5.30;;;3.60;;
11970;SDS011;6045;42.682;23.294;2024-02-26T12:23:29;4.57;;;3.70;;
11970;SDS011;6045;42.682;23.294;2024-02-26T12:25:58;6.57;;;3.67;;
11970;SDS011;6045;42.682;23.294;2024-02-26T12:28:27;5.73;;;3.70;;
11970;SDS011;6045;42.682;23.294;2024-02-26T12:30:54;6.47;;;3.57;;
11970;SDS011;6045;42.682;23.294;2024-02-26T13:05:26;3.53;;;3.22;;
11970;SDS011;6045;42.682;23.294;2024-02-26T13:07:54;6.15;;;3.88;;
11970;SDS011;6045;42.682;23.294;2024-02-26T13:10:21;4.63;;;3.20;;
11970;SDS011;6045;42.682;23.294;2024-02-26T13:12:51;6.38;;;3.92;;
11970;SDS011;6045;42.682;23.294;2024-02-26T13:15:19;6.32;;;4.00;;
11970;SDS011;6045;42.682;23.294;2024-02-26T13:18:22;6.95;;;3.95;;
11970;SDS011;6045;42.682;23.294;2024-02-26T13:21:10;4.03;;;3.40;;
11970;SDS011;6045;42.682;23.294;2024-02-26T13:23:39;4.70;;;3.38;;
11970;SDS011;6045;42.682;23.294;2024-02-26T13:26:06;3.08;;;2.72;;
11970;SDS011;6045;42.682;23.294;2024-02-26T13:28:34;7.40;;;4.00;;
11970;SDS011;6045;42.682;23.294;2024-02-26T13:31:01;4.25;;;3.40;;
11970;SDS011;6045;42.682;23.294;2024-02-26T13:40:21;5.00;;;3.35;;
11970;SDS011;6045;42.682;23.294;2024-02-26T13:42:48;4.30;;;3.30;;
11970;SDS011;6045;42.682;23.294;2024-02-26T13:45:16;5.43;;;3.35;;
11970;SDS011;6045;42.682;23.294;2024-02-26T13:47:43;5.25;;;3.70;;
11970;SDS011;6045;42.682;23.294;2024-02-26T13:50:10;4.60;;;3.53;;
11970;SDS011;6045;42.682;23.294;2024-02-26T13:52:37;4.57;;;3.00;;
11970;SDS011;6045;42.682;23.294;2024-02-26T13:55:05;5.07;;;3.33;;
11970;SDS011;6045;42.682;23.294;2024-02-26T13:57:34;4.87;;;3.43;;
11970;SDS011;6045;42.682;23.294;2024-02-26T14:00:01;4.10;;;3.13;;
11970;SDS011;6045;42.682;23.294;2024-02-26T14:03:03;4.77;;;3.00;;
11970;SDS011;6045;42.682;23.294;2024-02-26T14:05:30;3.80;;;2.57;;
11970;SDS011;6045;42.682;23.294;2024-02-26T14:07:57;3.97;;;2.80;;
11970;SDS011;6045;42.682;23.294;2024-02-26T14:10:24;4.80;;;3.30;;
11970;SDS011;6045;42.682;23.294;2024-02-26T14:12:53;6.33;;;3.30;;
11970;SDS011;6045;42.682;23.294;2024-02-26T14:15:34;8.05;;;3.40;;
11970;SDS011;6045;42.682;23.294;2024-02-26T14:18:42;3.63;;;2.92;;
11970;SDS011;6045;42.682;23.294;2024-02-26T14:21:11;4.65;;;3.17;;
11970;SDS011;6045;42.682;23.294;2024-02-26T14:23:44;5.33;;;3.20;;
11970;SDS011;6045;42.682;23.294;2024-02-26T14:26:45;3.60;;;2.85;;
11970;SDS011;6045;42.682;23.294;2024-02-26T14:29:14;3.85;;;2.65;;
11970;SDS011;6045;42.682;23.294;2024-02-26T14:32:44;4.13;;;3.10;;
11970;SDS011;6045;42.682;23.294;2024-02-26T14:35:06;4.10;;;3.07;;
11970;SDS011;6045;42.682;23.294;2024-02-26T14:37:45;4.40;;;2.97;;
11970;SDS011;6045;42.682;23.294;2024-02-26T14:40:29;5.37;;;3.30;;
11970;SDS011;6045;42.682;23.294;2024-02-26T14:42:57;6.20;;;3.23;;
11970;SDS011;6045;42.682;23.294;2024-02-26T14:45:26;8.23;;;3.97;;
11970;SDS011;6045;42.682;23.294;2024-02-26T14:47:53;4.57;;;3.17;;
11970;SDS011;6045;42.682;23.294;2024-02-26T14:50:22;4.40;;;3.00;;
11970;SDS011;6045;42.682;23.294;2024-02-26T14:52:49;6.53;;;3.43;;
11970;SDS011;6045;42.682;23.294;2024-02-26T14:55:16;3.43;;;2.77;;
11970;SDS011;6045;42.682;23.294;2024-02-26T14:57:46;3.97;;;3.30;;
11970;SDS011;6045;42.682;23.294;2024-02-26T15:00:13;3.97;;;2.97;;
11970;SDS011;6045;42.682;23.294;2024-02-26T15:02:44;4.93;;;3.05;;
11970;SDS011;6045;42.682;23.294;2024-02-26T15:12:58;4.33;;;3.00;;
11970;SDS011;6045;42.682;23.294;2024-02-26T15:16:16;5.97;;;2.97;;
11970;SDS011;6045;42.682;23.294;2024-02-26T15:18:47;4.87;;;3.57;;
11970;SDS011;6045;42.682;23.294;2024-02-26T15:21:14;3.97;;;3.40;;
11970;SDS011;6045;42.682;23.294;2024-02-26T15:23:42;4.70;;;3.13;;
11970;SDS011;6045;42.682;23.294;2024-02-26T15:26:10;3.40;;;2.75;;
11970;SDS011;6045;42.682;23.294;2024-02-26T15:28:37;4.03;;;2.73;;
11970;SDS011;6045;42.682;23.294;2024-02-26T15:31:03;5.47;;;3.20;;
11970;SDS011;6045;42.682;23.294;2024-02-26T15:33:30;4.90;;;3.20;;
11970;SDS011;6045;42.682;23.294;2024-02-26T15:35:59;3.67;;;3.00;;
11970;SDS011;6045;42.682;23.294;2024-02-26T15:38:26;5.47;;;2.73;;
11970;SDS011;6045;42.682;23.294;2024-02-26T15:41:03;4.37;;;2.77;;
11970;SDS011;6045;42.682;23.294;2024-02-26T15:43:37;5.80;;;3.37;;
11970;SDS011;6045;42.682;23.294;2024-02-26T15:46:04;5.83;;;3.10;;
11970;SDS011;6045;42.682;23.294;2024-02-26T15:48:31;4.03;;;2.90;;
11970;SDS011;6045;42.682;23.294;2024-02-26T15:51:00;6.03;;;3.33;;
11970;SDS011;6045;42.682;23.294;2024-02-26T15:53:27;4.60;;;3.10;;
11970;SDS011;6045;42.682;23.294;2024-02-26T15:55:57;4.10;;;3.10;;
11970;SDS011;6045;42.682;23.294;2024-02-26T15:58:24;4.63;;;2.50;;
11970;SDS011;6045;42.682;23.294;2024-02-26T16:00:51;4.83;;;3.20;;
11970;SDS011;6045;42.682;23.294;2024-02-26T16:03:18;5.33;;;3.47;;
11970;SDS011;6045;42.682;23.294;2024-02-26T16:05:45;5.77;;;2.87;;
11970;SDS011;6045;42.682;23.294;2024-02-26T16:08:16;5.73;;;3.53;;
11970;SDS011;6045;42.682;23.294;2024-02-26T16:10:45;5.70;;;3.50;;
11970;SDS011;6045;42.682;23.294;2024-02-26T16:15:04;5.13;;;3.80;;
11970;SDS011;6045;42.682;23.294;2024-02-26T16:17:01;6.27;;;3.70;;
11970;SDS011;6045;42.682;23.294;2024-02-26T16:23:11;6.60;;;3.23;;
11970;SDS011;6045;42.682;23.294;2024-02-26T16:25:39;5.77;;;3.27;;
11970;SDS011;6045;42.682;23.294;2024-02-26T16:31:12;4.03;;;3.17;;
11970;SDS011;6045;42.682;23.294;2024-02-26T16:33:39;4.33;;;3.40;;
11970;SDS011;6045;42.682;23.294;2024-02-26T16:36:28;6.87;;;3.10;;
11970;SDS011;6045;42.682;23.294;2024-02-26T16:39:12;5.07;;;3.33;;
11970;SDS011;6045;42.682;23.294;2024-02-26T16:44:48;7.33;;;3.90;;
11970;SDS011;6045;42.682;23.294;2024-02-26T16:47:42;9.47;;;3.80;;
11970;SDS011;6045;42.682;23.294;2024-02-26T16:57:06;4.97;;;3.57;;
11970;SDS011;6045;42.682;23.294;2024-02-26T16:59:55;5.53;;;3.57;;
11970;SDS011;6045;42.682;23.294;2024-02-26T17:05:40;6.40;;;3.70;;
11970;SDS011;6045;42.682;23.294;2024-02-26T17:08:12;4.77;;;3.23;;
11970;SDS011;6045;42.682;23.294;2024-02-26T17:10:50;6.27;;;3.77;;
11970;SDS011;6045;42.682;23.294;2024-02-26T17:32:10;9.10;;;4.40;;
11970;SDS011;6045;42.682;23.294;2024-02-26T17:34:52;4.63;;;3.73;;
11970;SDS011;6045;42.682;23.294;2024-02-26T17:37:19;11.67;;;4.90;;
11970;SDS011;6045;42.682;23.294;2024-02-26T17:46:14;8.80;;;4.67;;
11970;SDS011;6045;42.682;23.294;2024-02-26T17:48:43;5.73;;;4.33;;
11970;SDS011;6045;42.682;23.294;2024-02-26T17:51:10;8.27;;;5.60;;
11970;SDS011;6045;42.682;23.294;2024-02-26T17:53:37;6.57;;;4.93;;
11970;SDS011;6045;42.682;23.294;2024-02-26T17:56:07;9.00;;;4.80;;
11970;SDS011;6045;42.682;23.294;2024-02-26T17:58:49;9.67;;;5.33;;
11970;SDS011;6045;42.682;23.294;2024-02-26T18:01:16;11.43;;;4.67;;
11970;SDS011;6045;42.682;23.294;2024-02-26T18:03:47;7.63;;;4.50;;
11970;SDS011;6045;42.682;23.294;2024-02-26T18:06:23;6.73;;;4.07;;
11970;SDS011;6045;42.682;23.294;2024-02-26T18:08:50;7.30;;;4.30;;
11970;SDS011;6045;42.682;23.294;2024-02-26T18:11:23;5.70;;;3.90;;
11970;SDS011;6045;42.682;23.294;2024-02-26T18:13:50;5.90;;;4.27;;
11970;SDS011;6045;42.682;23.294;2024-02-26T18:16:19;8.03;;;4.47;;
11970;SDS011;6045;42.682;23.294;2024-02-26T18:18:47;7.77;;;4.17;;
11970;SDS011;6045;42.682;23.294;2024-02-26T18:21:14;5.73;;;4.00;;
11970;SDS011;6045;42.682;23.294;2024-02-26T18:23:49;11.07;;;4.30;;
11970;SDS011;6045;42.682;23.294;2024-02-26T18:26:25;4.50;;;3.90;;
11970;SDS011;6045;42.682;23.294;2024-02-26T18:29:01;7.43;;;4.30;;
11970;SDS011;6045;42.682;23.294;2024-02-26T19:05:44;10.07;;;5.30;;
11970;SDS011;6045;42.682;23.294;2024-02-26T19:08:18;7.13;;;5.10;;
11970;SDS011;6045;42.682;23.294;2024-02-26T19:10:51;8.10;;;5.80;;
11970;SDS011;6045;42.682;23.294;2024-02-26T19:13:29;12.70;;;6.20;;
11970;SDS011;6045;42.682;23.294;2024-02-26T19:15:58;9.87;;;5.70;;
11970;SDS011;6045;42.682;23.294;2024-02-26T19:18:25;8.33;;;5.30;;
11970;SDS011;6045;42.682;23.294;2024-02-26T19:20:52;10.73;;;5.40;;
11970;SDS011;6045;42.682;23.294;2024-02-26T19:23:19;6.73;;;4.73;;
11970;SDS011;6045;42.682;23.294;2024-02-26T19:25:46;6.00;;;5.30;;
11970;SDS011;6045;42.682;23.294;2024-02-26T19:28:44;8.03;;;5.27;;
11970;SDS011;6045;42.682;23.294;2024-02-26T19:31:16;9.57;;;4.97;;
11970;SDS011;6045;42.682;23.294;2024-02-26T19:37:29;9.00;;;4.93;;
11970;SDS011;6045;42.682;23.294;2024-02-26T19:39:56;7.53;;;5.43;;
11970;SDS011;6045;42.682;23.294;2024-02-26T19:42:25;8.67;;;5.27;;
11970;SDS011;6045;42.682;23.294;2024-02-26T19:44:54;8.67;;;5.40;;
11970;SDS011;6045;42.682;23.294;2024-02-26T19:47:22;8.03;;;4.70;;
11970;SDS011;6045;42.682;23.294;2024-02-26T19:49:51;8.47;;;5.60;;
11970;SDS011;6045;42.682;23.294;2024-02-26T19:52:21;9.23;;;5.47;;
11970;SDS011;6045;42.682;23.294;2024-02-26T20:05:09;8.70;;;6.03;;
11970;SDS011;6045;42.682;23.294;2024-02-26T20:08:38;6.63;;;5.10;;
11970;SDS011;6045;42.682;23.294;2024-02-26T20:13:56;7.40;;;5.70;;
11970;SDS011;6045;42.682;23.294;2024-02-26T20:16:23;9.80;;;6.17;;
11970;SDS011;6045;42.682;23.294;2024-02-26T20:18:53;8.37;;;5.83;;
11970;SDS011;6045;42.682;23.294;2024-02-26T20:21:21;11.57;;;6.43;;
11970;SDS011;6045;42.682;23.294;2024-02-26T20:23:50;12.00;;;6.13;;
11970;SDS011;6045;42.682;23.294;2024-02-26T20:26:17;8.80;;;6.40;;
11970;SDS011;6045;42.682;23.294;2024-02-26T20:28:44;9.53;;;6.23;;
11970;SDS011;6045;42.682;23.294;2024-02-26T20:31:11;12.20;;;6.50;;
11970;SDS011;6045;42.682;23.294;2024-02-26T20:33:39;13.13;;;6.47;;
11970;SDS011;6045;42.682;23.294;2024-02-26T20:36:10;10.80;;;7.13;;
11970;SDS011;6045;42.682;23.294;2024-02-26T20:41:23;13.53;;;7.47;;
11970;SDS011;6045;42.682;23.294;2024-02-26T20:44:10;11.23;;;6.73;;
11970;SDS011;6045;42.682;23.294;2024-02-26T20:49:59;10.30;;;6.57;;
11970;SDS011;6045;42.682;23.294;2024-02-26T20:56:13;10.83;;;7.00;;
11970;SDS011;6045;42.682;23.294;2024-02-26T20:58:40;10.67;;;6.67;;
11970;SDS011;6045;42.682;23.294;2024-02-26T21:01:07;9.97;;;6.60;;
11970;SDS011;6045;42.682;23.294;2024-02-26T21:03:35;14.93;;;7.23;;
11970;SDS011;6045;42.682;23.294;2024-02-26T21:06:02;10.33;;;6.67;;
11970;SDS011;6045;42.682;23.294;2024-02-26T21:08:33;8.97;;;6.50;;
11970;SDS011;6045;42.682;23.294;2024-02-26T21:11:00;11.33;;;7.13;;
11970;SDS011;6045;42.682;23.294;2024-02-26T21:13:30;13.40;;;7.93;;
11970;SDS011;6045;42.682;23.294;2024-02-26T21:15:57;12.13;;;7.40;;
11970;SDS011;6045;42.682;23.294;2024-02-26T21:18:24;14.63;;;8.60;;
11970;SDS011;6045;42.682;23.294;2024-02-26T21:20:51;13.93;;;8.73;;
11970;SDS011;6045;42.682;23.294;2024-02-26T21:23:19;15.90;;;8.93;;
11970;SDS011;6045;42.682;23.294;2024-02-26T21:25:46;15.57;;;8.87;;
11970;SDS011;6045;42.682;23.294;2024-02-26T21:28:16;13.13;;;8.33;;
11970;SDS011;6045;42.682;23.294;2024-02-26T21:30:44;16.90;;;8.90;;
11970;SDS011;6045;42.682;23.294;2024-02-26T21:33:12;11.73;;;8.30;;
11970;SDS011;6045;42.682;23.294;2024-02-26T21:35:39;15.33;;;9.43;;
11970;SDS011;6045;42.682;23.294;2024-02-26T21:38:06;13.80;;;9.33;;
11970;SDS011;6045;42.682;23.294;2024-02-26T21:40:36;14.17;;;8.43;;
11970;SDS011;6045;42.682;23.294;2024-02-26T21:43:03;13.23;;;8.60;;
11970;SDS011;6045;42.682;23.294;2024-02-26T21:45:30;11.90;;;8.27;;
11970;SDS011;6045;42.682;23.294;2024-02-26T21:47:59;18.60;;;9.53;;
11970;SDS011;6045;42.682;23.294;2024-02-26T21:50:26;10.70;;;7.63;;
11970;SDS011;6045;42.682;23.294;2024-02-26T21:52:52;13.87;;;8.10;;
11970;SDS011;6045;42.682;23.294;2024-02-26T21:55:19;14.87;;;8.67;;
11970;SDS011;6045;42.682;23.294;2024-02-26T21:57:48;11.97;;;8.93;;
11970;SDS011;6045;42.682;23.294;2024-02-26T22:00:15;15.03;;;8.87;;
11970;SDS011;6045;42.682;23.294;2024-02-26T22:02:42;13.13;;;9.33;;
11970;SDS011;6045;42.682;23.294;2024-02-26T22:05:11;13.77;;;9.03;;
11970;SDS011;6045;42.682;23.294;2024-02-26T22:07:39;14.77;;;8.30;;
11970;SDS011;6045;42.682;23.294;2024-02-26T22:10:06;15.50;;;8.77;;
11970;SDS011;6045;42.682;23.294;2024-02-26T22:12:34;12.43;;;8.13;;
11970;SDS011;6045;42.682;23.294;2024-02-26T22:15:01;11.67;;;8.60;;